Airport ICAO


00:46 UTC

-2°C

Few clouds


An affordable passengers' Moving Map for your aircraft. Made for the iPad and the iPhone
More information here

EGKB Biggin Hill


London UNITED KINGDOM   VFR


METAR EGKB 222220Z 07005KT 9999 FEW025 M02/M03 Q1022 2h26min

TAF EGKB 221957Z 2221/2223 07009KT 9999 FEW040 PROB30 TEMPO 2221/2223 8000 4h49min





NOTAMS

OPEN